Time;durP1;ratioP1;P1;durP2;ratioP2;P2;SDS_P1;SDS_P2;PMS_P1;PMS_P2;Temp;Humidity;BMP_temperature;BMP_pressure;BME280_temperature;BME280_humidity;BME280_pressure;Samples;Min_cycle;Max_cycle;Signal;HPM_P1;HPM_P2
2022/09/01 00:02:07;;;;;;;9.75;5.05;;;;;;;19.01;nan;-24346.19;5005066;28;20655;-59
2022/09/01 00:04:35;;;;;;;9.43;4.57;;;;;;;19.38;nan;-24356.50;5012048;28;20260;-60
2022/09/01 00:07:00;;;;;;;9.27;5.28;;;;;;;19.29;nan;-24353.84;5004279;28;20242;-60
2022/09/01 00:09:26;;;;;;;9.32;4.70;;;;;;;19.21;nan;-24351.63;5007447;28;20634;-59
2022/09/01 00:11:53;;;;;;;10.27;4.68;;;;;;;19.12;nan;-24349.25;5010989;28;20191;-60
2022/09/01 00:14:27;;;;;;;10.07;5.03;;;;;;;19.23;nan;-24352.31;5008183;28;20219;-59
2022/09/01 00:16:53;;;;;;;9.02;4.45;;;;;;;19.39;nan;-24356.63;5010230;28;20191;-59
2022/09/01 00:19:19;;;;;;;9.75;5.45;;;;;;;18.97;nan;-24345.22;5011259;28;20285;-60
2022/09/01 00:21:45;;;;;;;9.20;5.15;;;;;;;19.20;nan;-24351.47;5010411;28;20259;-60
2022/09/01 00:24:12;;;;;;;7.65;4.60;;;;;;;19.10;nan;-24348.56;5000023;28;20206;-59
2022/09/01 00:26:38;;;;;;;11.52;5.30;;;;;;;18.90;nan;-24343.28;5005295;28;20191;-59
2022/09/01 00:29:04;;;;;;;10.77;4.90;;;;;;;19.15;nan;-24350.09;5003955;28;20228;-60
2022/09/01 00:31:30;;;;;;;7.68;4.55;;;;;;;19.31;nan;-24354.41;5002686;28;20666;-60
2022/09/01 00:33:56;;;;;;;8.68;4.70;;;;;;;18.95;nan;-24344.53;5003134;28;20242;-59
2022/09/01 00:36:21;;;;;;;7.30;4.35;;;;;;;19.22;nan;-24351.91;5007429;28;20184;-60
2022/09/01 00:38:48;;;;;;;7.40;4.53;;;;;;;19.04;nan;-24347.03;5005280;28;20208;-59
2022/09/01 00:41:15;;;;;;;6.85;4.45;;;;;;;18.88;nan;-24342.56;5010786;28;20274;-59
2022/09/01 00:43:53;;;;;;;8.50;4.97;;;;;;;18.32;nan;-24327.25;4999156;28;20209;-57
2022/09/01 00:46:21;;;;;;;9.30;4.78;;;;;;;18.68;nan;-24337.00;5008088;28;20184;-60
2022/09/01 00:48:51;;;;;;;10.57;5.38;;;;;;;18.00;nan;-24318.34;5001492;28;20763;-60
2022/09/01 00:51:17;;;;;;;9.18;5.13;;;;;;;18.69;nan;-24337.28;5004075;28;20176;-59
2022/09/01 00:53:44;;;;;;;11.60;5.75;;;;;;;18.32;nan;-24327.13;5001905;28;20563;-59
2022/09/01 00:56:10;;;;;;;15.07;6.28;;;;;;;18.60;nan;-24334.78;5006336;28;20183;-59
2022/09/01 00:58:37;;;;;;;13.23;6.68;;;;;;;18.29;nan;-24326.28;5011444;28;20313;-60
2022/09/01 01:01:07;;;;;;;12.73;6.45;;;;;;;18.45;nan;-24330.88;5011756;28;20564;-59
2022/09/01 01:03:34;;;;;;;11.15;5.80;;;;;;;18.52;nan;-24332.81;5005764;28;20694;-59
2022/09/01 01:06:07;;;;;;;12.43;6.68;;;;;;;18.90;nan;-24343.28;5004054;28;20741;-59
2022/09/01 01:08:37;;;;;;;12.18;6.18;;;;;;;18.53;nan;-24333.13;5006545;28;20181;-59
2022/09/01 01:11:18;;;;;;;11.65;6.47;;;;;;;18.66;nan;-24336.44;5004903;28;20192;-60
2022/09/01 01:13:48;;;;;;;15.50;7.07;;;;;;;18.78;nan;-24339.94;5006517;28;20183;-59
2022/09/01 01:16:14;;;;;;;11.70;6.45;;;;;;;18.44;nan;-24330.59;5015283;28;20198;-59
2022/09/01 01:18:40;;;;;;;17.00;7.07;;;;;;;18.74;nan;-24338.69;5008072;28;20204;-59
2022/09/01 01:24:05;;;;;;;14.48;7.43;;;;;;;18.91;nan;-24343.41;5007808;28;20666;-60
2022/09/01 01:26:30;;;;;;;16.92;7.50;;;;;;;18.56;nan;-24333.66;5014291;28;20172;-60
2022/09/01 01:28:56;;;;;;;13.50;7.35;;;;;;;18.84;nan;-24341.59;5002557;28;20354;-60
2022/09/01 01:31:23;;;;;;;15.25;7.20;;;;;;;18.50;nan;-24332.28;5005383;28;20635;-59
2022/09/01 01:33:52;;;;;;;15.18;7.13;;;;;;;18.62;nan;-24335.47;5000291;28;20279;-59
2022/09/01 01:36:25;;;;;;;13.88;7.15;;;;;;;18.94;nan;-24344.25;5010431;28;20219;-59
2022/09/01 01:38:52;;;;;;;13.50;7.05;;;;;;;18.75;nan;-24339.09;5014315;28;20211;-59
2022/09/01 01:41:18;;;;;;;18.30;7.63;;;;;;;18.74;nan;-24338.81;5011093;28;20176;-60
2022/09/01 01:43:45;;;;;;;13.93;6.38;;;;;;;18.61;nan;-24335.19;4999590;28;20231;-59
2022/09/01 01:46:13;;;;;;;10.90;6.78;;;;;;;18.20;nan;-24323.78;5009396;28;20176;-59
2022/09/01 01:48:40;;;;;;;15.90;6.70;;;;;;;18.04;nan;-24319.44;5008130;28;20203;-60
2022/09/01 01:51:06;;;;;;;11.95;6.05;;;;;;;18.21;nan;-24324.06;5014557;28;20180;-59
2022/09/01 01:53:32;;;;;;;14.30;7.10;;;;;;;18.23;nan;-24324.59;5014456;28;20176;-60
2022/09/01 01:55:59;;;;;;;11.55;6.28;;;;;;;18.39;nan;-24329.06;5002237;28;20647;-60
2022/09/01 01:58:27;;;;;;;11.25;6.53;;;;;;;18.27;nan;-24325.72;5009815;28;20214;-59
2022/09/01 02:00:54;;;;;;;13.50;6.93;;;;;;;18.24;nan;-24325.03;5012844;28;20667;-59
2022/09/01 02:03:23;;;;;;;14.35;7.07;;;;;;;17.98;nan;-24317.78;5005032;28;20176;-60
2022/09/01 02:05:51;;;;;;;15.48;7.93;;;;;;;17.50;nan;-24304.66;5004273;28;20184;-59
2022/09/01 02:08:19;;;;;;;11.82;7.45;;;;;;;17.73;nan;-24310.94;5001470;28;20180;-59
2022/09/01 02:10:47;;;;;;;13.20;7.18;;;;;;;17.59;nan;-24307.03;5005122;28;20191;-59
2022/09/01 02:13:15;;;;;;;11.68;6.65;;;;;;;17.52;nan;-24305.09;5009191;28;20716;-58
2022/09/01 02:15:45;;;;;;;12.25;7.07;;;;;;;17.65;nan;-24308.84;5007113;28;20276;-59
2022/09/01 02:18:15;;;;;;;11.63;6.95;;;;;;;17.83;nan;-24313.59;5000931;28;20651;-59
2022/09/01 02:20:41;;;;;;;13.27;7.22;;;;;;;18.14;nan;-24322.25;4998232;28;20612;-60
2022/09/01 02:23:09;;;;;;;12.27;6.40;;;;;;;18.03;nan;-24319.19;5000637;28;20211;-58
2022/09/01 02:25:42;;;;;;;11.18;6.88;;;;;;;18.12;nan;-24321.53;5009124;28;21061;-59
2022/09/01 02:28:16;;;;;;;10.07;5.95;;;;;;;18.24;nan;-24325.03;5006261;28;20280;-60
2022/09/01 02:30:50;;;;;;;14.93;7.05;;;;;;;18.28;nan;-24326.00;5009860;28;20217;-59
2022/09/01 02:33:20;;;;;;;12.63;6.55;;;;;;;18.38;nan;-24328.94;5005053;28;20221;-59
2022/09/01 02:35:51;;;;;;;10.23;6.25;;;;;;;18.31;nan;-24326.97;5012391;28;20183;-59
2022/09/01 02:38:17;;;;;;;14.77;7.20;;;;;;;18.05;nan;-24319.72;5011543;28;20200;-60
2022/09/01 02:40:45;;;;;;;12.98;6.80;;;;;;;18.17;nan;-24322.94;5013553;28;20184;-59
2022/09/01 02:43:12;;;;;;;14.32;7.25;;;;;;;18.51;nan;-24332.41;5013306;28;20188;-59
2022/09/01 02:45:38;;;;;;;10.63;6.15;;;;;;;18.42;nan;-24330.03;5013113;28;20183;-59
2022/09/01 02:48:09;;;;;;;11.65;6.72;;;;;;;18.26;nan;-24325.59;5000249;28;20187;-60
2022/09/01 02:50:37;;;;;;;13.32;7.07;;;;;;;18.52;nan;-24332.69;4998277;28;20189;-59
2022/09/01 02:53:08;;;;;;;14.45;7.05;;;;;;;18.39;nan;-24329.22;5011520;28;20179;-58
2022/09/01 02:55:35;;;;;;;13.60;7.30;;;;;;;18.39;nan;-24329.06;5003881;28;20172;-60
2022/09/01 02:58:01;;;;;;;11.43;6.63;;;;;;;18.35;nan;-24327.94;5007245;28;20211;-59
2022/09/01 03:00:32;;;;;;;10.90;6.45;;;;;;;18.45;nan;-24330.88;5002994;28;20533;-60
2022/09/01 03:03:00;;;;;;;14.70;7.30;;;;;;;17.94;nan;-24316.66;5005761;28;20275;-60
2022/09/01 03:05:28;;;;;;;12.20;6.72;;;;;;;17.99;nan;-24318.19;5009054;28;20187;-60
2022/09/01 03:08:03;;;;;;;14.30;7.63;;;;;;;17.80;nan;-24312.91;5005414;28;20200;-59
2022/09/01 03:10:35;;;;;;;12.57;7.30;;;;;;;18.13;nan;-24321.97;5013242;28;20196;-60
2022/09/01 03:13:07;;;;;;;13.48;6.47;;;;;;;17.90;nan;-24315.69;5004782;28;20176;-59
2022/09/01 03:15:35;;;;;;;12.70;6.82;;;;;;;18.04;nan;-24319.59;5002721;28;20696;-58
2022/09/01 03:18:02;;;;;;;15.40;7.50;;;;;;;17.95;nan;-24317.09;5012367;28;20195;-60
2022/09/01 03:20:30;;;;;;;15.43;7.15;;;;;;;17.97;nan;-24317.50;5006384;28;20224;-60
2022/09/01 03:22:56;;;;;;;11.82;7.05;;;;;;;18.10;nan;-24321.25;5006268;28;20864;-59
2022/09/01 03:25:24;;;;;;;12.48;7.18;;;;;;;18.08;nan;-24320.72;4998469;28;20196;-59
2022/09/01 03:27:51;;;;;;;13.20;7.05;;;;;;;18.18;nan;-24323.22;4997381;28;20595;-60
2022/09/01 03:30:18;;;;;;;14.52;7.65;;;;;;;18.23;nan;-24324.75;4999024;28;20180;-60
2022/09/01 03:32:44;;;;;;;11.13;6.28;;;;;;;18.08;nan;-24320.56;4998626;28;20196;-59
2022/09/01 03:35:10;;;;;;;13.68;7.40;;;;;;;17.90;nan;-24315.53;4997667;28;20180;-60
2022/09/01 03:37:36;;;;;;;14.77;7.25;;;;;;;18.03;nan;-24319.19;4997257;28;20176;-60
2022/09/01 03:40:04;;;;;;;17.13;7.93;;;;;;;17.89;nan;-24315.28;4997694;28;20180;-60
2022/09/01 03:42:31;;;;;;;14.88;7.32;;;;;;;18.21;nan;-24324.19;4997582;28;20550;-59
2022/09/01 03:44:57;;;;;;;13.63;7.30;;;;;;;18.20;nan;-24323.78;4998585;28;20199;-60
2022/09/01 03:47:22;;;;;;;14.52;8.15;;;;;;;18.22;nan;-24324.47;4998582;28;20184;-59
2022/09/01 03:49:49;;;;;;;16.05;6.90;;;;;;;18.27;nan;-24325.88;4998468;28;20652;-60
2022/09/01 03:52:16;;;;;;;12.25;7.13;;;;;;;18.08;nan;-24320.72;4999344;28;20185;-60
2022/09/01 03:54:44;;;;;;;14.85;7.30;;;;;;;18.23;nan;-24324.59;4998112;28;20180;-58
2022/09/01 03:57:10;;;;;;;18.88;8.13;;;;;;;18.09;nan;-24320.84;4996770;28;20192;-59
2022/09/01 03:59:42;;;;;;;15.40;7.97;;;;;;;18.07;nan;-24320.44;4998076;28;20366;-59
2022/09/01 04:02:07;;;;;;;12.75;6.82;;;;;;;18.20;nan;-24323.78;4997550;28;20176;-59
2022/09/01 04:04:33;;;;;;;16.17;8.32;;;;;;;18.31;nan;-24326.97;4997109;28;20188;-60
2022/09/01 04:06:59;;;;;;;13.25;7.05;;;;;;;18.47;nan;-24331.44;4997949;28;20187;-58
2022/09/01 04:09:25;;;;;;;13.32;7.10;;;;;;;18.74;nan;-24338.81;4996751;28;20187;-60
2022/09/01 04:11:52;;;;;;;12.02;6.78;;;;;;;18.77;nan;-24339.66;4995557;28;20189;-60
2022/09/01 04:14:18;;;;;;;15.38;7.28;;;;;;;18.99;nan;-24345.66;4999244;28;20180;-59
2022/09/01 04:19:29;;;;;;;14.73;8.32;;;;;;;19.15;nan;-24350.09;5000881;28;20618;-59
2022/09/01 04:21:58;;;;;;;12.57;6.47;;;;;;;19.87;nan;-24369.72;5001833;28;20196;-60
2022/09/01 04:24:27;;;;;;;11.63;7.13;;;;;;;20.21;nan;-24379.28;5000142;28;20171;-59
2022/09/01 04:26:53;;;;;;;12.95;6.85;;;;;;;20.21;nan;-24379.28;4998828;28;20180;-59
2022/09/01 04:29:26;;;;;;;12.75;7.15;;;;;;;20.31;nan;-24381.78;5007988;28;20184;-60
2022/09/01 04:32:04;;;;;;;11.90;6.45;;;;;;;20.44;nan;-24385.53;5002099;28;20259;-59
2022/09/01 04:34:35;;;;;;;11.75;6.43;;;;;;;20.64;nan;-24390.97;4999766;28;20188;-59
2022/09/01 04:37:13;;;;;;;12.02;6.57;;;;;;;20.59;nan;-24389.72;5010909;28;20188;-60
2022/09/01 04:39:47;;;;;;;10.50;6.22;;;;;;;20.39;nan;-24384.16;5011104;28;20210;-59
2022/09/01 04:42:13;;;;;;;11.50;6.45;;;;;;;20.22;nan;-24379.44;5011188;28;20164;-59
2022/09/01 04:44:38;;;;;;;12.13;6.65;;;;;;;20.51;nan;-24387.34;5011191;28;20171;-60
2022/09/01 04:47:10;;;;;;;11.57;6.15;;;;;;;20.11;nan;-24376.50;5011315;28;20176;-59
2022/09/01 04:49:36;;;;;;;10.93;6.68;;;;;;;20.48;nan;-24386.66;5015122;28;20681;-59
2022/09/01 04:52:02;;;;;;;11.77;5.72;;;;;;;20.55;nan;-24388.47;5015125;28;20310;-59
2022/09/01 04:54:29;;;;;;;16.38;7.55;;;;;;;20.47;nan;-24386.25;5003858;28;20192;-59
2022/09/01 04:56:54;;;;;;;14.82;7.57;;;;;;;20.28;nan;-24381.09;5011453;28;20192;-59
2022/09/01 04:59:23;;;;;;;12.55;7.15;;;;;;;20.34;nan;-24382.63;5010712;28;20257;-59
2022/09/01 05:01:49;;;;;;;11.90;6.30;;;;;;;20.39;nan;-24384.16;5008865;28;20267;-59
2022/09/01 05:04:21;;;;;;;12.65;6.90;;;;;;;20.63;nan;-24390.81;5012083;28;20235;-59
2022/09/01 05:06:56;;;;;;;10.75;5.80;;;;;;;20.59;nan;-24389.56;5012735;28;20186;-59
2022/09/01 05:09:23;;;;;;;9.05;5.70;;;;;;;21.03;nan;-24401.63;5014830;28;20182;-59
2022/09/01 05:11:50;;;;;;;10.90;5.65;;;;;;;20.82;nan;-24395.81;5008638;28;20187;-59
2022/09/01 05:14:17;;;;;;;10.27;4.90;;;;;;;21.25;nan;-24407.59;5014417;28;20180;-59
2022/09/01 05:16:44;;;;;;;9.68;5.30;;;;;;;21.06;nan;-24402.59;5008637;28;20684;-59
2022/09/01 05:19:13;;;;;;;9.15;5.68;;;;;;;21.41;nan;-24412.03;5014779;28;20293;-59
2022/09/01 05:21:44;;;;;;;8.73;5.40;;;;;;;21.57;nan;-24416.47;5014804;28;20558;-59
2022/09/01 05:24:10;;;;;;;10.35;5.20;;;;;;;21.48;nan;-24413.97;5014610;28;20646;-59
2022/09/01 05:26:39;;;;;;;11.63;5.07;;;;;;;21.73;nan;-24420.78;5013968;28;20674;-59
2022/09/01 05:29:12;;;;;;;9.93;5.20;;;;;;;21.46;nan;-24413.44;5014283;28;20456;-59
2022/09/01 05:31:42;;;;;;;8.60;5.05;;;;;;;21.56;nan;-24416.34;5004484;28;20185;-60
2022/09/01 05:34:08;;;;;;;9.60;6.03;;;;;;;21.68;nan;-24419.38;5013204;28;20625;-59
2022/09/01 05:36:36;;;;;;;8.45;6.03;;;;;;;22.01;nan;-24428.66;5007707;28;20220;-59
2022/09/01 05:39:04;;;;;;;9.18;6.03;;;;;;;22.24;nan;-24434.88;5013522;28;20558;-59
2022/09/01 05:41:32;;;;;;;9.38;5.38;;;;;;;22.55;nan;-24443.34;5007517;28;20264;-60
2022/09/01 05:43:58;;;;;;;11.95;6.03;;;;;;;22.66;nan;-24446.25;5013894;28;20233;-58
2022/09/01 05:46:26;;;;;;;10.20;6.35;;;;;;;22.55;nan;-24443.19;5014112;28;20179;-59
2022/09/01 05:48:54;;;;;;;8.18;5.47;;;;;;;22.48;nan;-24441.41;5013618;28;20222;-59
2022/09/01 05:51:25;;;;;;;12.48;6.25;;;;;;;22.48;nan;-24441.41;5013985;28;20191;-59
2022/09/01 05:53:54;;;;;;;9.88;5.82;;;;;;;22.51;nan;-24442.22;5013990;28;20156;-59
2022/09/01 05:56:21;;;;;;;8.93;5.80;;;;;;;22.79;nan;-24449.84;5014105;28;20176;-61
2022/09/01 05:58:47;;;;;;;8.77;5.40;;;;;;;22.82;nan;-24450.81;5013534;28;20208;-59
2022/09/01 06:01:23;;;;;;;8.85;5.72;;;;;;;22.65;nan;-24446.09;5013080;28;20172;-59
2022/09/01 06:03:55;;;;;;;8.35;5.55;;;;;;;22.78;nan;-24449.56;5014088;28;20206;-59
2022/09/01 06:06:23;;;;;;;9.10;5.68;;;;;;;22.73;nan;-24448.31;5013783;28;20168;-59
2022/09/01 06:08:49;;;;;;;10.38;5.78;;;;;;;22.98;nan;-24455.09;5013813;28;20195;-59
2022/09/01 06:11:18;;;;;;;7.78;5.28;;;;;;;23.17;nan;-24460.34;5009838;28;20192;-60
2022/09/01 06:13:46;;;;;;;8.80;5.55;;;;;;;23.26;nan;-24462.69;5013052;28;20172;-60
2022/09/01 06:16:15;;;;;;;10.18;5.32;;;;;;;23.14;nan;-24459.38;5013777;28;20203;-59
2022/09/01 06:18:42;;;;;;;8.57;5.43;;;;;;;23.55;nan;-24470.56;5012935;28;20184;-59
2022/09/01 06:21:13;;;;;;;11.77;6.15;;;;;;;23.28;nan;-24463.38;5007835;28;20226;-59
2022/09/01 06:23:41;;;;;;;8.20;5.22;;;;;;;23.82;nan;-24477.88;5013281;28;20218;-59
2022/09/01 06:26:16;;;;;;;9.50;5.15;;;;;;;24.03;nan;-24483.66;5004757;28;20199;-59
2022/09/01 06:28:43;;;;;;;8.80;5.18;;;;;;;24.33;nan;-24491.81;5006827;28;20266;-60
2022/09/01 06:31:09;;;;;;;9.88;5.70;;;;;;;24.38;nan;-24493.31;4996268;28;20620;-60
2022/09/01 06:33:34;;;;;;;7.88;5.43;;;;;;;24.37;nan;-24493.03;5009425;28;20183;-59
2022/09/01 06:36:03;;;;;;;8.27;5.25;;;;;;;24.17;nan;-24487.69;5007186;28;20191;-59
2022/09/01 06:38:29;;;;;;;9.75;5.25;;;;;;;24.53;nan;-24497.47;5012820;28;20682;-60
2022/09/01 06:41:11;;;;;;;9.20;5.20;;;;;;;24.37;nan;-24493.03;5004781;28;20274;-59
2022/09/01 06:43:40;;;;;;;8.32;5.18;;;;;;;24.35;nan;-24492.50;5008914;28;20184;-60
2022/09/01 06:46:08;;;;;;;8.27;5.40;;;;;;;24.75;nan;-24503.25;5012991;28;20192;-60
2022/09/01 06:48:45;;;;;;;11.75;5.53;;;;;;;24.41;nan;-24494.16;5012792;28;20181;-59
2022/09/01 06:51:15;;;;;;;9.55;5.75;;;;;;;24.37;nan;-24493.03;5005243;28;20220;-59
2022/09/01 06:53:55;;;;;;;7.13;5.05;;;;;;;24.33;nan;-24491.94;5009486;28;20200;-60
2022/09/01 06:56:23;;;;;;;8.25;5.05;;;;;;;24.82;nan;-24505.31;5012482;28;20183;-60
2022/09/01 06:58:51;;;;;;;8.95;5.43;;;;;;;25.00;nan;-24510.28;5003092;28;20214;-59
2022/09/01 07:01:18;;;;;;;6.88;4.90;;;;;;;25.02;nan;-24510.81;5006544;28;20215;-59
2022/09/01 07:03:46;;;;;;;8.48;4.85;;;;;;;24.98;nan;-24509.72;5012662;28;20180;-61
2022/09/01 07:06:14;;;;;;;11.57;6.57;;;;;;;25.06;nan;-24511.78;5006390;28;20263;-59
2022/09/01 07:08:48;;;;;;;9.02;5.47;;;;;;;24.85;nan;-24506.00;5011928;28;20206;-60
2022/09/01 07:11:24;;;;;;;8.45;5.30;;;;;;;25.11;nan;-24513.16;5001277;28;20609;-59
2022/09/01 07:13:54;;;;;;;8.52;5.50;;;;;;;25.22;nan;-24516.06;5000747;28;20275;-59
2022/09/01 07:16:22;;;;;;;8.80;5.38;;;;;;;24.82;nan;-24505.31;5012613;28;20191;-60
2022/09/01 07:18:53;;;;;;;9.52;5.55;;;;;;;25.46;nan;-24522.78;5006194;28;20295;-60
2022/09/01 07:21:19;;;;;;;10.80;5.63;;;;;;;25.55;nan;-24525.13;5012347;28;20211;-59
2022/09/01 07:23:45;;;;;;;8.95;5.88;;;;;;;25.41;nan;-24521.41;5006496;28;20595;-60
2022/09/01 07:26:18;;;;;;;8.85;5.47;;;;;;;25.96;nan;-24536.28;5012908;28;20203;-60
2022/09/01 07:28:49;;;;;;;10.15;6.50;;;;;;;25.51;nan;-24524.16;5006453;28;20219;-60
2022/09/01 07:31:24;;;;;;;9.25;5.70;;;;;;;25.66;nan;-24528.16;4996304;28;20176;-60
2022/09/01 07:33:51;;;;;;;11.75;6.35;;;;;;;25.47;nan;-24523.06;5010725;28;20604;-59
2022/09/01 07:36:17;;;;;;;11.43;5.82;;;;;;;25.24;nan;-24516.75;5008320;28;20267;-60
2022/09/01 07:38:43;;;;;;;9.02;6.05;;;;;;;25.07;nan;-24512.19;5012058;28;20206;-60
2022/09/01 07:41:12;;;;;;;12.23;6.03;;;;;;;25.08;nan;-24512.34;5004643;28;20184;-61
2022/09/01 07:43:43;;;;;;;10.68;6.65;;;;;;;25.74;nan;-24530.22;4993701;28;20302;-60
2022/09/01 07:46:10;;;;;;;10.15;6.43;;;;;;;26.08;nan;-24539.44;5003809;28;20191;-59
2022/09/01 07:48:36;;;;;;;11.35;6.28;;;;;;;26.23;nan;-24543.56;5012289;28;20187;-59
2022/09/01 07:51:02;;;;;;;8.23;5.38;;;;;;;26.58;nan;-24553.19;5006141;28;20176;-60
2022/09/01 07:53:30;;;;;;;11.40;5.80;;;;;;;26.34;nan;-24546.59;5012338;28;20191;-60
2022/09/01 07:55:57;;;;;;;10.15;5.20;;;;;;;26.41;nan;-24548.50;5012358;28;20246;-60
2022/09/01 07:58:26;;;;;;;8.90;5.80;;;;;;;26.45;nan;-24549.47;5012087;28;20191;-59
2022/09/01 08:00:53;;;;;;;11.52;5.93;;;;;;;26.37;nan;-24547.41;5011807;28;20617;-59
2022/09/01 08:03:23;;;;;;;7.15;5.25;;;;;;;26.05;nan;-24538.75;5012404;28;20631;-59
2022/09/01 08:05:52;;;;;;;9.40;6.03;;;;;;;25.79;nan;-24531.75;5012334;28;20234;-59
2022/09/01 08:08:19;;;;;;;12.20;5.80;;;;;;;26.21;nan;-24543.16;5012234;28;20187;-59
2022/09/01 08:10:45;;;;;;;10.82;5.80;;;;;;;26.55;nan;-24552.22;5012004;28;20607;-59
2022/09/01 08:13:11;;;;;;;7.05;4.85;;;;;;;26.56;nan;-24552.63;5011414;28;20188;-58
2022/09/01 08:15:38;;;;;;;8.75;5.32;;;;;;;26.67;nan;-24555.50;5012094;28;20569;-60
2022/09/01 08:18:04;;;;;;;6.95;5.25;;;;;;;26.55;nan;-24552.22;5011887;28;20183;-60
2022/09/01 08:20:33;;;;;;;9.27;5.50;;;;;;;27.00;nan;-24564.56;5012186;28;20266;-59
2022/09/01 08:22:59;;;;;;;8.20;5.38;;;;;;;27.43;nan;-24576.06;5011252;28;20176;-59
2022/09/01 08:25:25;;;;;;;10.90;5.88;;;;;;;27.71;nan;-24583.63;5011956;28;20168;-59
2022/09/01 08:27:50;;;;;;;8.93;4.93;;;;;;;27.65;nan;-24582.25;5011696;28;20191;-60
2022/09/01 08:30:16;;;;;;;7.57;5.05;;;;;;;27.55;nan;-24579.38;5012298;28;20180;-59
2022/09/01 08:32:41;;;;;;;8.90;5.30;;;;;;;27.53;nan;-24578.97;5012280;28;20160;-59
2022/09/01 08:35:09;;;;;;;9.40;5.53;;;;;;;27.18;nan;-24569.50;5012188;28;20226;-59
2022/09/01 08:37:36;;;;;;;9.23;4.93;;;;;;;27.45;nan;-24576.63;5012470;28;20258;-59
2022/09/01 08:40:02;;;;;;;9.10;5.40;;;;;;;27.61;nan;-24581.00;5012430;28;20203;-59
2022/09/01 08:42:36;;;;;;;7.30;4.90;;;;;;;27.76;nan;-24585.00;5011738;28;20175;-59
2022/09/01 08:45:23;;;;;;;8.27;5.07;;;;;;;27.20;nan;-24569.91;5012192;28;20172;-59
2022/09/01 08:47:56;;;;;;;9.43;5.05;;;;;;;26.89;nan;-24561.56;5011857;28;20175;-59
2022/09/01 08:50:22;;;;;;;8.57;5.18;;;;;;;26.95;nan;-24563.06;5011953;28;20209;-61
2022/09/01 08:53:08;;;;;;;8.80;5.25;;;;;;;27.14;nan;-24568.41;5011324;28;20258;-60
2022/09/01 08:55:39;;;;;;;12.30;5.10;;;;;;;27.20;nan;-24569.91;5012032;28;20546;-60
2022/09/01 08:58:05;;;;;;;6.82;4.78;;;;;;;27.55;nan;-24579.38;5011623;28;20266;-60
2022/09/01 09:00:41;;;;;;;11.68;4.85;;;;;;;27.43;nan;-24576.06;5011809;28;20192;-59
2022/09/01 09:03:12;;;;;;;9.63;5.55;;;;;;;27.98;nan;-24591.16;5011769;28;20168;-60
2022/09/01 09:06:01;;;;;;;11.95;5.55;;;;;;;27.76;nan;-24585.13;5012137;28;20210;-59
2022/09/01 09:08:50;;;;;;;12.45;5.80;;;;;;;27.74;nan;-24584.59;5011972;28;20267;-60
2022/09/01 09:11:30;;;;;;;8.80;5.22;;;;;;;27.96;nan;-24590.59;5011360;28;20176;-59
2022/09/01 09:13:58;;;;;;;8.13;5.30;;;;;;;27.95;nan;-24590.34;5011560;28;20168;-60
2022/09/01 09:16:33;;;;;;;8.20;5.05;;;;;;;28.13;nan;-24595.00;5011869;28;20192;-59
2022/09/01 09:19:06;;;;;;;9.02;4.85;;;;;;;27.95;nan;-24590.19;5011000;28;20254;-58
2022/09/01 09:21:35;;;;;;;7.68;5.30;;;;;;;27.65;nan;-24582.25;5011339;28;20251;-59
2022/09/01 09:24:45;;;;;;;11.88;5.85;;;;;;;27.71;nan;-24583.75;5011302;28;20180;-60
2022/09/01 09:27:16;;;;;;;11.95;5.55;;;;;;;27.82;nan;-24586.78;5011949;28;20198;-59
2022/09/01 09:29:41;;;;;;;8.55;5.50;;;;;;;27.93;nan;-24589.78;5011586;28;20176;-60
2022/09/01 09:32:09;;;;;;;8.85;5.13;;;;;;;28.10;nan;-24594.44;5011468;28;20214;-60
2022/09/01 09:34:42;;;;;;;8.38;5.30;;;;;;;28.34;nan;-24600.88;5013031;28;20168;-59
2022/09/01 09:37:25;;;;;;;6.75;3.67;;;;;;;28.31;nan;-24599.91;5015045;28;20211;-60
2022/09/01 09:40:13;;;;;;;6.20;4.10;;;;;;;27.95;nan;-24590.34;5014786;28;20207;-63
2022/09/01 09:42:42;;;;;;;8.02;5.30;;;;;;;27.81;nan;-24586.34;5014759;28;20164;-58
2022/09/01 09:45:21;;;;;;;6.50;4.80;;;;;;;27.76;nan;-24585.13;5015104;28;20231;-59
2022/09/01 09:47:47;;;;;;;9.15;5.55;;;;;;;28.17;nan;-24596.09;5015028;28;20295;-58
2022/09/01 09:50:16;;;;;;;7.85;5.15;;;;;;;27.88;nan;-24588.28;5014998;28;20184;-59
2022/09/01 09:52:45;;;;;;;7.00;4.05;;;;;;;28.48;nan;-24604.56;5015071;28;20172;-59
2022/09/01 09:55:27;;;;;;;6.25;3.92;;;;;;;28.47;nan;-24604.44;5014416;28;20210;-59
2022/09/01 09:58:00;;;;;;;6.85;3.95;;;;;;;28.40;nan;-24602.38;5015136;28;20168;-59
2022/09/01 10:00:33;;;;;;;5.32;3.72;;;;;;;28.83;nan;-24614.00;5014383;28;20318;-59
2022/09/01 10:03:17;;;;;;;6.25;3.88;;;;;;;28.38;nan;-24601.84;5014434;28;20175;-60
2022/09/01 10:05:50;;;;;;;7.00;3.85;;;;;;;28.96;nan;-24617.56;5012393;28;20256;-62
2022/09/01 10:08:36;;;;;;;7.30;4.78;;;;;;;28.88;nan;-24615.38;5014023;28;20168;-60
2022/09/01 10:11:02;;;;;;;10.10;5.10;;;;;;;28.96;nan;-24617.69;5013350;28;20233;-59
2022/09/01 10:13:28;;;;;;;7.57;4.72;;;;;;;29.29;nan;-24626.44;5013789;28;20183;-60
2022/09/01 10:15:59;;;;;;;6.30;3.88;;;;;;;29.16;nan;-24623.03;5014078;28;20183;-59
2022/09/01 10:18:31;;;;;;;6.53;3.78;;;;;;;29.02;nan;-24619.06;5007578;28;20199;-59
2022/09/01 10:21:07;;;;;;;7.07;4.43;;;;;;;29.04;nan;-24619.75;4999946;28;20256;-60
2022/09/01 10:23:35;;;;;;;6.65;4.38;;;;;;;28.72;nan;-24611.13;5013898;28;20542;-59
2022/09/01 10:26:10;;;;;;;7.90;4.30;;;;;;;29.25;nan;-24625.34;5013687;28;20191;-60
2022/09/01 10:28:44;;;;;;;7.95;4.60;;;;;;;29.31;nan;-24627.13;5012724;28;20629;-59
2022/09/01 10:31:10;;;;;;;7.88;4.18;;;;;;;29.21;nan;-24624.38;5011190;28;20257;-59
2022/09/01 10:33:35;;;;;;;11.15;5.82;;;;;;;28.86;nan;-24614.97;5012775;28;20175;-59
2022/09/01 10:36:02;;;;;;;9.27;5.38;;;;;;;28.92;nan;-24616.47;5012466;28;20512;-59
2022/09/01 10:38:28;;;;;;;9.55;5.32;;;;;;;29.40;nan;-24629.44;5011863;28;20286;-59
2022/09/01 10:41:06;;;;;;;11.68;4.72;;;;;;;29.17;nan;-24623.16;5012370;28;20179;-60
2022/09/01 10:43:32;;;;;;;8.00;4.68;;;;;;;29.49;nan;-24631.91;5012450;28;20163;-59
2022/09/01 10:45:57;;;;;;;5.72;4.00;;;;;;;29.36;nan;-24628.34;5011637;28;20183;-59
2022/09/01 10:48:28;;;;;;;4.90;3.75;;;;;;;29.15;nan;-24622.75;4977843;28;20199;-60
2022/09/01 10:51:13;;;;;;;6.47;4.47;;;;;;;29.28;nan;-24626.28;4215546;28;21015;-61
2022/09/01 10:53:40;;;;;;;8.98;4.40;;;;;;;29.39;nan;-24629.31;5012141;28;20234;-60
2022/09/01 10:56:22;;;;;;;5.70;3.88;;;;;;;29.35;nan;-24628.22;5013707;28;20246;-60
2022/09/01 10:59:23;;;;;;;7.38;4.13;;;;;;;29.41;nan;-24629.84;5013730;28;20685;-60
2022/09/01 11:01:48;;;;;;;8.80;4.28;;;;;;;29.88;nan;-24642.25;4940092;28;20195;-60
2022/09/01 11:04:29;;;;;;;8.13;4.28;;;;;;;30.23;nan;-24651.81;4993443;28;20255;-59
2022/09/01 11:07:04;;;;;;;7.15;4.78;;;;;;;30.14;nan;-24649.38;4994199;28;20176;-59
2022/09/01 11:09:43;;;;;;;10.27;4.88;;;;;;;30.32;nan;-24654.13;4993731;28;20184;-59
2022/09/01 11:12:26;;;;;;;6.22;4.38;;;;;;;30.10;nan;-24648.41;4993554;28;20184;-59
2022/09/01 11:14:58;;;;;;;7.30;4.63;;;;;;;29.74;nan;-24638.72;4993840;28;20274;-59
2022/09/01 11:17:46;;;;;;;6.30;4.28;;;;;;;29.30;nan;-24626.72;4993646;28;20631;-59
2022/09/01 11:20:24;;;;;;;12.38;4.70;;;;;;;29.60;nan;-24634.75;4982660;28;20326;-59
2022/09/01 11:22:56;;;;;;;6.38;4.18;;;;;;;29.64;nan;-24636.00;4993014;28;20223;-59
2022/09/01 11:25:42;;;;;;;8.43;4.30;;;;;;;29.42;nan;-24630.00;4993638;28;20168;-59
2022/09/01 11:28:13;;;;;;;6.72;4.28;;;;;;;29.64;nan;-24635.84;4993611;28;20168;-59
2022/09/01 11:30:51;;;;;;;5.15;3.83;;;;;;;29.49;nan;-24631.91;4993167;28;20651;-59
2022/09/01 11:33:42;;;;;;;7.22;4.63;;;;;;;30.05;nan;-24647.03;4993631;28;20179;-59
2022/09/01 11:36:27;;;;;;;7.72;4.43;;;;;;;30.25;nan;-24652.34;4993039;28;20192;-59
2022/09/01 11:38:55;;;;;;;6.50;4.28;;;;;;;30.12;nan;-24648.81;4993199;28;20200;-59
2022/09/01 11:41:40;;;;;;;6.38;4.40;;;;;;;30.28;nan;-24653.31;4993019;28;20194;-59
2022/09/01 11:44:23;;;;;;;7.45;4.40;;;;;;;30.27;nan;-24653.03;4993349;28;20203;-59
2022/09/01 11:46:51;;;;;;;6.30;3.92;;;;;;;30.10;nan;-24648.28;4992832;28;20164;-59
2022/09/01 11:49:28;;;;;;;6.35;3.78;;;;;;;30.72;nan;-24665.03;4992880;28;20207;-59
2022/09/01 11:51:55;;;;;;;6.82;4.45;;;;;;;30.74;nan;-24665.56;5004903;28;20616;-60
2022/09/01 11:54:22;;;;;;;5.82;3.80;;;;;;;30.51;nan;-24659.31;5003858;28;20188;-59
2022/09/01 11:56:47;;;;;;;10.52;3.95;;;;;;;30.42;nan;-24657.00;5007861;28;20183;-60